Time;durP1;ratioP1;P1;durP2;ratioP2;P2;SDS_P1;SDS_P2;PMS_P1;PMS_P2;Temp;Humidity;BMP_temperature;BMP_pressure;BME280_temperature;BME280_humidity;BME280_pressure;Samples;Min_cycle;Max_cycle;Signal;HPM_P1;HPM_P2
2022/04/29 00:02:07;;;;;;;3.13;0.80;;;7.00;99.90;;;;;;4974709;28;20046;-84
2022/04/29 00:04:34;;;;;;;2.38;1.00;;;6.50;99.90;;;;;;4979158;28;20116;-84
2022/04/29 00:07:00;;;;;;;1.80;0.70;;;6.10;99.90;;;;;;4958607;28;20058;-88
2022/04/29 00:09:26;;;;;;;1.00;0.75;;;6.10;99.90;;;;;;4958936;28;20046;-89
2022/04/29 00:11:52;;;;;;;2.00;0.80;;;6.40;99.90;;;;;;4967263;28;20042;-87
2022/04/29 00:14:19;;;;;;;5.60;0.90;;;6.00;99.90;;;;;;4975756;28;20085;-89
2022/04/29 00:16:45;;;;;;;0.93;0.60;;;6.30;99.90;;;;;;4966888;28;20383;-89
2022/04/29 00:19:10;;;;;;;2.13;0.88;;;6.00;99.90;;;;;;4972115;28;20043;-89
2022/04/29 00:21:36;;;;;;;2.55;1.33;;;6.80;99.90;;;;;;4971447;28;20042;-85
2022/04/29 00:24:02;;;;;;;3.35;1.40;;;6.00;99.90;;;;;;4974364;28;20054;-83
2022/04/29 00:26:28;;;;;;;2.95;0.70;;;6.00;99.90;;;;;;4958682;28;20074;-83
2022/04/29 00:28:53;;;;;;;1.75;0.70;;;6.60;99.90;;;;;;4973954;28;20058;-84
2022/04/29 00:31:19;;;;;;;2.45;0.90;;;6.00;99.90;;;;;;4969135;28;20038;-84
2022/04/29 00:33:45;;;;;;;2.22;0.82;;;4.60;99.90;;;;;;4974364;28;20043;-84
2022/04/29 00:36:10;;;;;;;3.85;0.90;;;6.00;99.90;;;;;;4966675;28;20049;-84
2022/04/29 00:38:36;;;;;;;1.45;0.80;;;6.20;99.90;;;;;;4975278;28;20073;-84
2022/04/29 00:41:02;;;;;;;2.55;0.98;;;6.00;99.90;;;;;;4967282;28;20101;-83
2022/04/29 00:43:27;;;;;;;3.33;1.00;;;6.80;99.90;;;;;;4974658;28;20121;-83
2022/04/29 00:45:53;;;;;;;2.67;1.10;;;6.00;99.90;;;;;;4974643;28;20042;-83
2022/04/29 00:48:19;;;;;;;2.83;1.27;;;6.00;99.90;;;;;;4975879;28;20242;-84
2022/04/29 00:50:48;;;;;;;4.50;1.20;;;6.00;99.90;;;;;;4964279;28;20035;-84
2022/04/29 00:53:17;;;;;;;1.77;1.10;;;6.00;99.90;;;;;;4966318;28;20439;-84
2022/04/29 00:55:44;;;;;;;4.15;1.70;;;6.00;99.90;;;;;;4975097;28;20043;-83
2022/04/29 00:58:21;;;;;;;2.35;0.95;;;6.00;99.90;;;;;;4974664;28;20078;-83
2022/04/29 01:00:47;;;;;;;1.35;0.90;;;6.00;99.90;;;;;;4967531;28;20047;-84
2022/04/29 01:03:14;;;;;;;1.90;1.00;;;6.40;99.90;;;;;;4974292;28;20053;-83
2022/04/29 01:05:41;;;;;;;4.97;1.33;;;6.40;99.90;;;;;;4975185;28;20375;-85
2022/04/29 01:08:08;;;;;;;2.50;1.20;;;6.60;99.90;;;;;;4974459;28;20043;-84
2022/04/29 01:10:34;;;;;;;1.85;0.80;;;6.50;99.90;;;;;;4976701;28;20045;-84
2022/04/29 01:13:03;;;;;;;1.65;0.90;;;6.50;99.90;;;;;;4975931;28;20573;-84
2022/04/29 01:15:29;;;;;;;2.30;1.02;;;5.80;99.90;;;;;;4983630;28;20046;-84
2022/04/29 01:17:59;;;;;;;2.22;1.10;;;6.70;99.90;;;;;;4974921;28;20077;-86
2022/04/29 01:20:28;;;;;;;2.90;1.20;;;5.70;99.90;;;;;;4980427;28;20050;-83
2022/04/29 01:22:55;;;;;;;2.72;1.20;;;6.70;99.90;;;;;;4965708;28;20073;-84
2022/04/29 01:25:21;;;;;;;2.55;1.30;;;5.70;99.90;;;;;;4970722;28;20120;-84
2022/04/29 01:27:46;;;;;;;2.85;1.38;;;4.70;99.90;;;;;;4964624;28;20122;-84
2022/04/29 01:30:15;;;;;;;2.70;1.23;;;5.80;99.90;;;;;;4965216;28;20109;-85
2022/04/29 01:32:41;;;;;;;1.52;1.10;;;5.50;99.90;;;;;;4962494;28;20039;-85
2022/04/29 01:35:09;;;;;;;4.00;1.25;;;5.50;99.90;;;;;;4971536;28;20057;-86
2022/04/29 01:37:35;;;;;;;4.22;1.27;;;6.10;99.90;;;;;;4950256;28;20485;-85
2022/04/29 01:40:01;;;;;;;2.72;1.23;;;5.10;99.90;;;;;;4958722;28;20043;-84
2022/04/29 01:42:27;;;;;;;2.05;1.00;;;5.90;99.90;;;;;;4964151;28;20038;-85
2022/04/29 01:44:54;;;;;;;1.70;1.08;;;5.40;99.90;;;;;;4952357;28;20042;-84
2022/04/29 01:47:20;;;;;;;5.28;1.00;;;5.40;99.90;;;;;;4956526;28;20142;-86
2022/04/29 01:49:45;;;;;;;1.33;1.00;;;5.10;99.90;;;;;;4973699;28;20114;-85
2022/04/29 01:52:11;;;;;;;0.77;0.70;;;5.50;99.90;;;;;;4965666;28;20047;-87
2022/04/29 01:54:38;;;;;;;2.38;0.90;;;6.30;99.90;;;;;;4974253;28;20038;-86
2022/04/29 01:57:07;;;;;;;1.42;0.90;;;6.10;99.90;;;;;;4973417;28;20034;-86
2022/04/29 01:59:34;;;;;;;1.17;0.90;;;5.50;99.90;;;;;;4972927;28;20160;-86
2022/04/29 02:02:00;;;;;;;1.92;1.10;;;6.40;99.90;;;;;;4962008;28;20423;-88
2022/04/29 02:04:26;;;;;;;1.60;0.88;;;6.50;99.90;;;;;;4973801;28;20125;-85
2022/04/29 02:06:52;;;;;;;1.85;0.70;;;6.10;99.90;;;;;;4962109;28;20854;-85
2022/04/29 02:09:18;;;;;;;0.77;0.70;;;6.10;99.90;;;;;;4954181;28;20046;-87
2022/04/29 02:12:03;;;;;;;1.63;1.00;;;5.60;99.90;;;;;;4975229;28;20042;-85
2022/04/29 02:14:29;;;;;;;2.20;1.20;;;5.50;99.90;;;;;;4970253;28;20043;-84
2022/04/29 02:16:56;;;;;;;3.55;1.23;;;6.80;99.90;;;;;;4970736;28;20124;-86
2022/04/29 02:19:22;;;;;;;3.78;1.13;;;5.80;99.90;;;;;;4970726;28;20045;-84
2022/04/29 02:21:48;;;;;;;1.10;0.95;;;5.90;99.90;;;;;;4972717;28;20062;-84
2022/04/29 02:24:14;;;;;;;3.22;1.20;;;6.60;99.90;;;;;;4956611;28;20043;-84
2022/04/29 02:26:40;;;;;;;2.13;0.80;;;5.60;99.90;;;;;;4972574;28;20050;-84
2022/04/29 02:29:07;;;;;;;1.00;0.90;;;6.20;99.90;;;;;;4967923;28;20488;-85
2022/04/29 02:31:33;;;;;;;1.13;1.00;;;5.70;99.90;;;;;;4971129;28;20054;-85
2022/04/29 02:33:59;;;;;;;1.90;0.90;;;6.40;99.90;;;;;;4974602;28;20050;-84
2022/04/29 02:36:25;;;;;;;1.00;0.77;;;6.00;99.90;;;;;;4973925;28;20046;-84
2022/04/29 02:38:50;;;;;;;2.70;0.90;;;5.60;99.90;;;;;;4974306;28;20047;-83
2022/04/29 02:41:17;;;;;;;3.25;0.80;;;6.00;99.90;;;;;;4971191;28;20414;-83
2022/04/29 02:43:43;;;;;;;0.95;0.80;;;6.40;99.90;;;;;;4968235;28;20041;-83
2022/04/29 02:46:09;;;;;;;2.03;0.90;;;5.60;99.90;;;;;;4972705;28;20398;-83
2022/04/29 02:48:34;;;;;;;3.90;0.80;;;5.50;99.90;;;;;;4956167;28;20092;-84
2022/04/29 02:51:01;;;;;;;0.93;0.75;;;5.60;99.90;;;;;;4963151;28;20051;-84
2022/04/29 02:53:27;;;;;;;1.30;0.82;;;5.60;99.90;;;;;;4972441;28;20038;-84
2022/04/29 02:55:53;;;;;;;4.05;0.90;;;5.60;99.90;;;;;;4955966;28;20488;-83
2022/04/29 02:58:19;;;;;;;2.63;0.80;;;6.20;99.90;;;;;;4972020;28;20054;-84
2022/04/29 03:00:44;;;;;;;5.95;0.80;;;6.60;99.90;;;;;;4972028;28;20152;-84
2022/04/29 03:03:10;;;;;;;1.42;0.80;;;6.00;99.90;;;;;;4971742;28;20054;-84
2022/04/29 03:05:36;;;;;;;0.60;0.60;;;5.50;99.90;;;;;;4949084;28;20487;-83
2022/04/29 03:08:02;;;;;;;1.10;0.95;;;6.40;99.90;;;;;;4965343;28;20083;-84
2022/04/29 03:10:27;;;;;;;1.98;0.90;;;4.80;99.90;;;;;;4963966;28;20133;-85
2022/04/29 03:12:53;;;;;;;3.25;1.08;;;5.60;99.90;;;;;;4960525;28;20050;-83
2022/04/29 03:15:19;;;;;;;1.30;0.90;;;6.60;99.90;;;;;;4963091;28;20035;-84
2022/04/29 03:20:41;;;;;;;1.45;1.00;;;5.70;99.90;;;;;;4971630;28;20443;-86
2022/04/29 03:23:08;;;;;;;3.03;0.90;;;5.80;99.90;;;;;;4972323;28;20141;-83
2022/04/29 03:25:34;;;;;;;1.58;1.25;;;6.20;99.90;;;;;;4964918;28;20066;-84
2022/04/29 03:28:00;;;;;;;2.25;1.05;;;5.60;99.90;;;;;;4966733;28;20157;-83
2022/04/29 03:30:25;;;;;;;1.63;0.80;;;5.50;99.90;;;;;;4962560;28;20123;-84
2022/04/29 03:32:55;;;;;;;2.75;1.00;;;6.50;99.90;;;;;;4967752;28;20039;-83
2022/04/29 03:35:21;;;;;;;4.03;1.20;;;6.00;99.90;;;;;;4962609;28;20034;-84
2022/04/29 03:37:52;;;;;;;1.58;1.00;;;5.50;99.90;;;;;;4972635;28;20089;-86
2022/04/29 03:40:21;;;;;;;2.05;0.90;;;6.60;99.90;;;;;;4955339;28;20051;-84
2022/04/29 03:42:55;;;;;;;1.42;1.10;;;5.50;99.90;;;;;;4957504;28;20078;-84
2022/04/29 03:45:23;;;;;;;3.08;1.55;;;6.10;99.90;;;;;;4961211;28;20058;-85
2022/04/29 03:47:48;;;;;;;3.15;1.10;;;5.50;99.90;;;;;;4948341;28;20043;-84
2022/04/29 03:50:14;;;;;;;1.80;0.93;;;6.30;99.90;;;;;;4972314;28;20046;-84
2022/04/29 03:52:52;;;;;;;1.75;0.70;;;5.80;99.90;;;;;;4971790;28;20483;-84
2022/04/29 03:55:20;;;;;;;1.35;0.70;;;5.00;99.90;;;;;;4971639;28;20550;-86
2022/04/29 03:57:45;;;;;;;4.55;1.45;;;5.70;99.90;;;;;;4954927;28;20054;-84
2022/04/29 04:00:13;;;;;;;3.08;1.25;;;6.30;99.90;;;;;;4951358;28;20046;-85
2022/04/29 04:02:39;;;;;;;2.47;1.25;;;5.80;99.90;;;;;;4971977;28;20102;-84
2022/04/29 04:05:06;;;;;;;0.80;0.70;;;5.90;99.90;;;;;;4971718;28;20078;-84
2022/04/29 04:07:31;;;;;;;1.10;0.80;;;5.90;99.90;;;;;;4964299;28;20050;-85
2022/04/29 04:09:57;;;;;;;2.65;0.88;;;5.90;99.90;;;;;;4956492;28;20035;-85
2022/04/29 04:12:24;;;;;;;1.27;0.77;;;5.90;99.90;;;;;;4973493;28;20034;-86
2022/04/29 04:14:50;;;;;;;5.10;0.82;;;5.90;99.90;;;;;;4967798;28;20043;-90
2022/04/29 04:17:16;;;;;;;1.52;1.13;;;7.00;99.90;;;;;;4969880;28;20047;-90
2022/04/29 04:19:42;;;;;;;1.30;0.98;;;6.00;99.90;;;;;;4974789;28;20490;-90
2022/04/29 04:22:08;;;;;;;2.50;0.90;;;6.60;99.90;;;;;;4959249;28;20062;-90
2022/04/29 04:24:33;;;;;;;2.53;1.00;;;6.90;99.90;;;;;;4974621;28;20097;-90
2022/04/29 04:26:59;;;;;;;1.45;1.05;;;6.80;99.90;;;;;;4959264;28;20042;-88
2022/04/29 04:29:25;;;;;;;1.58;0.90;;;6.40;99.90;;;;;;4976265;28;20038;-88
2022/04/29 04:31:52;;;;;;;2.90;1.00;;;6.10;99.90;;;;;;4964364;28;20070;-88
2022/04/29 04:37:03;;;;;;;2.03;1.00;;;5.60;99.90;;;;;;4949599;28;20458;-86
2022/04/29 04:39:29;;;;;;;2.00;1.25;;;6.20;99.90;;;;;;4975894;28;20078;-87
2022/04/29 04:41:55;;;;;;;3.22;1.08;;;6.80;99.90;;;;;;4974878;28;20047;-88
2022/04/29 04:44:20;;;;;;;2.03;1.20;;;6.20;99.90;;;;;;4974692;28;20039;-88
2022/04/29 04:46:46;;;;;;;3.30;1.70;;;4.70;99.90;;;;;;4975521;28;20038;-86
2022/04/29 04:49:13;;;;;;;1.70;0.80;;;7.10;99.90;;;;;;4956728;28;20105;-88
2022/04/29 04:51:39;;;;;;;1.17;1.02;;;6.80;99.90;;;;;;4972041;28;20450;-87
2022/04/29 04:54:05;;;;;;;1.45;0.90;;;6.30;99.90;;;;;;4958078;28;20038;-86
2022/04/29 04:56:31;;;;;;;1.40;1.05;;;6.00;99.90;;;;;;4962460;28;20403;-87
2022/04/29 04:58:57;;;;;;;1.23;0.90;;;6.40;99.90;;;;;;4985860;28;20475;-85
2022/04/29 05:01:26;;;;;;;2.85;1.15;;;6.40;99.90;;;;;;4997042;28;20045;-85
2022/04/29 05:03:51;;;;;;;0.73;0.73;;;7.20;99.90;;;;;;4966815;28;20043;-86
2022/04/29 05:06:18;;;;;;;1.10;0.70;;;6.50;99.90;;;;;;4962079;28;20101;-87
2022/04/29 05:19:27;;;;;;;4.35;1.77;;;7.00;99.90;;;;;;4962681;28;20565;-86
2022/04/29 05:21:52;;;;;;;1.48;0.85;;;7.50;99.90;;;;;;4956570;28;20084;-85
2022/04/29 05:24:18;;;;;;;1.55;0.82;;;7.20;99.90;;;;;;4958823;28;20047;-86
2022/04/29 05:26:44;;;;;;;1.15;0.82;;;7.80;99.90;;;;;;4961075;28;20058;-87
2022/04/29 05:29:10;;;;;;;2.35;0.70;;;7.00;99.90;;;;;;4957233;28;20046;-86
2022/04/29 05:31:35;;;;;;;4.03;1.58;;;7.90;99.90;;;;;;4956065;28;20051;-86
2022/04/29 05:34:05;;;;;;;2.00;1.00;;;8.20;99.90;;;;;;4965908;28;20495;-86
2022/04/29 05:36:30;;;;;;;4.07;0.80;;;7.60;99.90;;;;;;4963286;28;20062;-87
2022/04/29 05:44:25;;;;;;;1.45;0.77;;;8.10;99.90;;;;;;4955985;28;20054;-86
2022/04/29 05:46:51;;;;;;;1.45;0.80;;;8.40;99.90;;;;;;4949408;28;20039;-86
2022/04/29 05:49:16;;;;;;;1.23;0.80;;;7.70;99.90;;;;;;4974187;28;20035;-87
2022/04/29 05:51:42;;;;;;;4.50;1.92;;;7.70;99.90;;;;;;4974078;28;20118;-88
2022/04/29 05:54:09;;;;;;;4.78;1.20;;;7.80;99.90;;;;;;4955710;28;20133;-88
2022/04/29 05:56:34;;;;;;;1.48;1.00;;;8.00;99.90;;;;;;4963215;28;20043;-91
2022/04/29 05:59:00;;;;;;;1.75;0.90;;;7.90;99.90;;;;;;4974365;28;20053;-89
2022/04/29 06:01:26;;;;;;;1.77;1.10;;;7.80;99.90;;;;;;4950052;28;20402;-88
2022/04/29 06:03:52;;;;;;;2.60;1.40;;;8.40;99.90;;;;;;4951226;29;20047;-88
2022/04/29 06:06:17;;;;;;;4.05;1.00;;;8.00;99.90;;;;;;4966661;28;20102;-85
2022/04/29 06:08:46;;;;;;;0.95;0.80;;;8.00;99.90;;;;;;4980615;28;20035;-85
2022/04/29 06:11:12;;;;;;;2.25;0.98;;;8.00;99.90;;;;;;4966291;28;20562;-87
2022/04/29 06:13:38;;;;;;;9.02;1.08;;;8.10;99.90;;;;;;4958346;28;20043;-88
2022/04/29 06:16:06;;;;;;;3.08;1.00;;;8.10;99.90;;;;;;4965978;28;20051;-87
2022/04/29 06:18:32;;;;;;;3.13;1.73;;;8.60;99.90;;;;;;4948930;28;20185;-88
2022/04/29 06:20:58;;;;;;;1.92;1.10;;;8.90;99.90;;;;;;4963484;28;20141;-89
2022/04/29 06:23:24;;;;;;;2.28;0.82;;;8.20;99.90;;;;;;4972494;28;20077;-89
2022/04/29 06:25:51;;;;;;;1.77;1.00;;;8.30;99.90;;;;;;4973457;28;20034;-89
2022/04/29 06:28:17;;;;;;;1.92;1.20;;;8.70;99.90;;;;;;4974228;28;20400;-88
2022/04/29 06:30:43;;;;;;;3.55;1.60;;;8.40;99.90;;;;;;4955494;28;20065;-88
2022/04/29 06:33:09;;;;;;;2.05;1.30;;;8.40;99.90;;;;;;4959962;28;20098;-92
2022/04/29 06:35:38;;;;;;;1.90;1.20;;;8.50;99.90;;;;;;4967969;28;20142;-89
2022/04/29 06:38:03;;;;;;;3.40;1.42;;;8.90;99.90;;;;;;4966515;28;20105;-88
2022/04/29 06:40:29;;;;;;;4.72;1.77;;;8.50;99.90;;;;;;4974453;28;20046;-91
2022/04/29 06:42:55;;;;;;;2.55;1.00;;;8.60;99.90;;;;;;4974422;28;20046;-89
2022/04/29 06:45:21;;;;;;;2.28;1.10;;;8.60;99.90;;;;;;4952385;28;20521;-87
2022/04/29 06:47:46;;;;;;;2.83;1.20;;;9.50;99.90;;;;;;4977826;28;20148;-90
2022/04/29 06:50:12;;;;;;;1.67;0.90;;;8.70;99.90;;;;;;4957777;28;20109;-85
2022/04/29 06:52:38;;;;;;;2.08;1.20;;;9.50;99.90;;;;;;4957541;28;20042;-93
2022/04/29 06:58:54;;;;;;;4.00;0.93;;;9.10;99.90;;;;;;4974231;28;20038;-89
2022/04/29 07:01:26;;;;;;;4.28;1.08;;;9.30;99.90;;;;;;4959081;28;20043;-90
2022/04/29 07:06:22;;;;;;;4.93;1.00;;;9.40;99.90;;;;;;5023699;23;20522;-85
2022/04/29 07:08:48;;;;;;;4.53;0.80;;;9.50;99.90;;;;;;4973187;28;20372;-85
2022/04/29 07:11:14;;;;;;;0.80;0.60;;;9.50;99.90;;;;;;4954526;28;20055;-86
2022/04/29 07:13:42;;;;;;;2.80;1.10;;;10.10;99.90;;;;;;4965567;28;20086;-85
2022/04/29 07:16:08;;;;;;;4.03;0.85;;;9.70;99.90;;;;;;4972266;28;20394;-85
2022/04/29 07:18:34;;;;;;;2.50;0.95;;;9.70;99.90;;;;;;4971825;28;20566;-84
2022/04/29 07:21:00;;;;;;;3.90;0.70;;;9.70;99.90;;;;;;4964661;28;20134;-85
2022/04/29 07:23:26;;;;;;;1.10;0.65;;;10.20;99.90;;;;;;4964553;28;20133;-84
2022/04/29 07:25:51;;;;;;;2.58;0.80;;;9.70;99.90;;;;;;4972640;28;20126;-85
2022/04/29 07:28:17;;;;;;;0.85;0.80;;;9.70;99.90;;;;;;4966509;28;20051;-84
2022/04/29 07:30:43;;;;;;;1.92;0.80;;;9.70;99.90;;;;;;4971014;28;20043;-87
2022/04/29 07:33:09;;;;;;;1.40;1.02;;;9.80;99.90;;;;;;4964987;28;20074;-85
2022/04/29 07:43:47;;;;;;;0.88;0.75;;;9.60;99.90;;;;;;4964190;28;20183;-84
2022/04/29 07:46:13;;;;;;;2.75;0.70;;;9.60;99.90;;;;;;4958144;28;20063;-84
2022/04/29 07:48:39;;;;;;;0.80;0.65;;;9.70;99.90;;;;;;4958502;28;20380;-85
2022/04/29 07:51:06;;;;;;;3.65;0.80;;;9.70;99.90;;;;;;4975962;28;20125;-83
2022/04/29 07:53:32;;;;;;;2.08;0.90;;;9.90;99.90;;;;;;4975898;28;20042;-86
2022/04/29 07:55:58;;;;;;;1.70;0.70;;;9.80;99.90;;;;;;4967267;28;20861;-83
2022/04/29 07:58:23;;;;;;;2.25;0.73;;;9.80;99.90;;;;;;4961478;28;20046;-85
2022/04/29 08:00:50;;;;;;;1.02;0.70;;;10.60;99.90;;;;;;4976080;28;20094;-84
2022/04/29 08:03:15;;;;;;;2.47;0.80;;;10.20;99.90;;;;;;4967609;28;20042;-84
2022/04/29 08:05:41;;;;;;;3.35;0.70;;;10.20;99.90;;;;;;4975747;28;20054;-84
2022/04/29 08:08:07;;;;;;;3.63;0.70;;;10.20;99.90;;;;;;4958043;28;20058;-86
2022/04/29 08:10:33;;;;;;;6.65;0.90;;;10.80;99.90;;;;;;4975466;28;20046;-84
2022/04/29 08:13:02;;;;;;;3.75;0.60;;;10.40;99.90;;;;;;4976167;28;20038;-85
2022/04/29 08:15:29;;;;;;;4.05;1.00;;;10.50;99.90;;;;;;4957936;28;20069;-84
2022/04/29 08:17:55;;;;;;;3.10;0.90;;;10.70;99.90;;;;;;4952897;29;20188;-84
2022/04/29 08:20:21;;;;;;;2.80;1.00;;;10.10;99.90;;;;;;4954810;28;20133;-87
2022/04/29 08:22:47;;;;;;;2.17;0.82;;;10.10;99.90;;;;;;4975365;28;20128;-84
2022/04/29 08:25:15;;;;;;;2.33;0.90;;;10.70;99.90;;;;;;4950970;28;20562;-84
2022/04/29 08:27:41;;;;;;;4.78;1.10;;;10.20;99.90;;;;;;4944721;28;20114;-84
2022/04/29 08:30:08;;;;;;;1.70;1.10;;;10.20;99.90;;;;;;4952505;28;20483;-84
2022/04/29 08:32:41;;;;;;;3.00;1.00;;;10.20;99.90;;;;;;4974545;28;20046;-84
2022/04/29 08:35:10;;;;;;;2.97;1.30;;;10.20;99.90;;;;;;4969206;28;20503;-85
2022/04/29 08:37:43;;;;;;;2.50;0.98;;;10.20;99.90;;;;;;4958099;28;20043;-85
2022/04/29 08:40:10;;;;;;;2.35;1.00;;;10.20;99.90;;;;;;4939803;29;20058;-84
2022/04/29 08:42:37;;;;;;;3.92;1.25;;;10.20;99.90;;;;;;4964577;28;20066;-83
2022/04/29 08:45:06;;;;;;;2.70;1.25;;;10.30;99.90;;;;;;4968010;28;20047;-88
2022/04/29 08:47:35;;;;;;;1.98;0.80;;;10.40;99.90;;;;;;4976688;28;20491;-86
2022/04/29 08:50:02;;;;;;;3.00;0.95;;;10.40;99.90;;;;;;4959125;28;20049;-85
2022/04/29 08:52:28;;;;;;;3.00;1.08;;;10.40;99.90;;;;;;4970730;28;20510;-85
2022/04/29 09:00:23;;;;;;;5.63;1.33;;;10.50;99.90;;;;;;4978134;28;20059;-85
2022/04/29 09:02:50;;;;;;;1.88;1.33;;;10.70;99.90;;;;;;4977019;28;20128;-84
2022/04/29 09:05:15;;;;;;;1.80;1.20;;;10.90;99.90;;;;;;4958696;28;20051;-85
2022/04/29 09:08:02;;;;;;;4.72;1.90;;;10.60;99.90;;;;;;4958718;28;20057;-86
2022/04/29 09:10:38;;;;;;;8.05;2.40;;;10.70;99.90;;;;;;4976284;28;20397;-85
2022/04/29 09:13:13;;;;;;;5.28;1.70;;;11.40;99.90;;;;;;4976043;28;20042;-85
2022/04/29 09:16:04;;;;;;;6.18;1.90;;;10.70;99.90;;;;;;4977763;28;20090;-84
2022/04/29 09:18:37;;;;;;;2.97;1.83;;;10.60;99.90;;;;;;4995647;28;20042;-85
2022/04/29 09:21:08;;;;;;;4.22;2.03;;;10.60;99.90;;;;;;4977922;28;20060;-85
2022/04/29 09:23:43;;;;;;;3.35;1.58;;;10.70;99.90;;;;;;4995423;28;20096;-85
2022/04/29 09:26:22;;;;;;;3.35;1.27;;;10.70;99.90;;;;;;4995566;28;20047;-85
2022/04/29 09:28:49;;;;;;;3.17;1.15;;;10.70;99.90;;;;;;4995837;28;20498;-85
2022/04/29 09:31:15;;;;;;;1.77;1.00;;;11.00;99.90;;;;;;4977819;28;20088;-85
2022/04/29 09:33:55;;;;;;;5.20;1.42;;;10.50;99.90;;;;;;4977396;28;20569;-85
2022/04/29 09:36:26;;;;;;;2.08;1.33;;;10.50;99.90;;;;;;4994969;28;20046;-85
2022/04/29 09:41:39;;;;;;;2.80;1.58;;;10.50;99.90;;;;;;4977380;28;20399;-84
2022/04/29 09:44:04;;;;;;;3.45;1.38;;;11.10;99.90;;;;;;4977261;28;20061;-85
2022/04/29 09:46:30;;;;;;;2.40;1.17;;;10.60;99.90;;;;;;4995014;28;20055;-85
2022/04/29 09:49:09;;;;;;;1.83;1.30;;;10.60;99.90;;;;;;4994601;28;20061;-85
2022/04/29 09:51:49;;;;;;;1.38;0.88;;;10.60;99.90;;;;;;4977056;28;20046;-85
2022/04/29 09:54:18;;;;;;;2.83;1.45;;;10.70;99.90;;;;;;4977334;28;20100;-85
2022/04/29 09:57:14;;;;;;;4.80;1.20;;;10.80;99.90;;;;;;4977177;28;20522;-85
2022/04/29 09:59:44;;;;;;;5.20;1.73;;;10.80;99.90;;;;;;4896642;29;20143;-85
2022/04/29 10:02:12;;;;;;;5.05;2.03;;;10.80;99.90;;;;;;4896375;29;20544;-85
2022/04/29 10:04:43;;;;;;;1.40;1.05;;;10.80;99.90;;;;;;4896217;29;20056;-85
2022/04/29 10:07:11;;;;;;;3.00;1.60;;;10.90;99.90;;;;;;4880776;29;20060;-85
2022/04/29 10:09:41;;;;;;;2.22;1.02;;;10.90;99.90;;;;;;4896141;29;20525;-85
2022/04/29 10:12:14;;;;;;;4.53;1.73;;;10.50;99.90;;;;;;4881009;29;20493;-85
2022/04/29 10:14:41;;;;;;;2.13;1.40;;;10.50;99.90;;;;;;4865653;29;20088;-84
2022/04/29 10:22:52;;;;;;;3.75;1.55;;;10.50;99.90;;;;;;4896162;29;20429;-85
2022/04/29 10:25:21;;;;;;;4.30;1.33;;;10.40;99.90;;;;;;4896043;29;20053;-84
2022/04/29 10:27:49;;;;;;;2.75;1.65;;;10.50;99.90;;;;;;4880816;29;20592;-85
2022/04/29 10:30:27;;;;;;;4.40;1.40;;;10.40;99.90;;;;;;4880373;29;20064;-84
2022/04/29 10:33:11;;;;;;;2.13;1.35;;;10.50;99.90;;;;;;4896062;29;20055;-84
2022/04/29 10:35:43;;;;;;;3.42;1.55;;;10.60;99.90;;;;;;4908088;28;20448;-84
2022/04/29 10:38:43;;;;;;;4.13;1.42;;;10.90;99.90;;;;;;4977116;28;20484;-85
2022/04/29 10:41:14;;;;;;;4.30;1.70;;;10.30;99.90;;;;;;4895883;29;20070;-85
2022/04/29 10:43:49;;;;;;;2.05;1.02;;;10.40;99.90;;;;;;4880293;29;20184;-85
2022/04/29 10:46:22;;;;;;;5.47;1.52;;;10.50;99.90;;;;;;4895743;29;20218;-85
2022/04/29 10:48:50;;;;;;;1.50;1.20;;;10.50;99.90;;;;;;4896103;29;20055;-84
2022/04/29 10:51:19;;;;;;;2.33;1.35;;;10.60;99.90;;;;;;4880138;29;20501;-84
2022/04/29 10:53:50;;;;;;;2.67;1.20;;;10.80;99.90;;;;;;4895818;29;20052;-85
2022/04/29 10:56:31;;;;;;;4.65;1.23;;;10.60;99.90;;;;;;4895648;29;20045;-85
2022/04/29 10:59:11;;;;;;;2.90;0.90;;;11.10;99.90;;;;;;4879964;29;20056;-85
2022/04/29 11:01:39;;;;;;;2.60;1.10;;;11.40;99.90;;;;;;4895678;29;20052;-85
2022/04/29 11:04:14;;;;;;;2.97;1.25;;;10.80;99.90;;;;;;4880380;29;20053;-84
2022/04/29 11:06:44;;;;;;;5.60;1.00;;;10.90;99.90;;;;;;4877710;29;20061;-85
2022/04/29 11:09:30;;;;;;;1.17;0.90;;;10.20;99.90;;;;;;4895531;29;20052;-83
2022/04/29 11:11:57;;;;;;;1.33;1.00;;;10.90;99.90;;;;;;4880040;29;20514;-85
2022/04/29 11:14:23;;;;;;;1.75;0.90;;;10.80;99.90;;;;;;4880112;29;20124;-85
2022/04/29 11:17:07;;;;;;;4.38;0.90;;;10.80;99.90;;;;;;4903327;28;20058;-87
2022/04/29 11:19:40;;;;;;;2.45;0.95;;;10.80;99.90;;;;;;4982106;28;20051;-88
2022/04/29 11:24:53;;;;;;;1.80;0.85;;;11.00;99.90;;;;;;4977885;28;20053;-84
2022/04/29 11:27:30;;;;;;;3.22;0.93;;;11.00;99.90;;;;;;4960558;28;20133;-84
2022/04/29 11:30:01;;;;;;;3.22;1.05;;;11.20;99.90;;;;;;4977952;28;20051;-85
2022/04/29 11:32:28;;;;;;;1.73;0.80;;;11.40;99.90;;;;;;4977365;28;20045;-84
2022/04/29 11:34:56;;;;;;;1.60;0.90;;;11.20;99.90;;;;;;4960409;28;20090;-84
2022/04/29 11:37:23;;;;;;;4.20;1.35;;;11.20;99.90;;;;;;4977776;28;20050;-85
2022/04/29 11:39:51;;;;;;;3.30;0.90;;;11.30;99.90;;;;;;4960126;28;20091;-85
2022/04/29 11:42:19;;;;;;;5.47;1.00;;;11.30;99.90;;;;;;4977527;28;20046;-84
2022/04/29 11:44:49;;;;;;;1.15;1.02;;;11.40;99.90;;;;;;4977437;28;20078;-85
2022/04/29 11:47:16;;;;;;;3.80;1.00;;;11.50;99.90;;;;;;4977087;28;20050;-84
2022/04/29 11:49:42;;;;;;;1.10;0.63;;;11.50;99.90;;;;;;4977713;28;20046;-84
2022/04/29 11:52:24;;;;;;;1.85;0.85;;;11.60;99.90;;;;;;4977506;28;20082;-85
2022/04/29 11:54:58;;;;;;;3.95;1.00;;;11.60;99.90;;;;;;4977404;28;20078;-83
2022/04/29 11:57:26;;;;;;;1.50;0.82;;;11.70;99.90;;;;;;4977412;28;20042;-84
2022/04/29 11:59:52;;;;;;;3.08;1.00;;;11.70;99.90;;;;;;4977291;28;20043;-85
2022/04/29 12:02:20;;;;;;;2.25;0.75;;;11.70;99.90;;;;;;4975288;28;20046;-84
2022/04/29 12:05:05;;;;;;;4.00;1.00;;;11.70;99.90;;;;;;4976992;28;20093;-85
2022/04/29 12:07:45;;;;;;;2.47;0.85;;;11.50;99.90;;;;;;4977286;28;20058;-84
2022/04/29 12:10:22;;;;;;;2.35;1.00;;;11.80;99.90;;;;;;4959730;28;20499;-85
2022/04/29 12:12:49;;;;;;;3.72;0.90;;;11.70;99.90;;;;;;4957266;28;20055;-87
2022/04/29 12:15:19;;;;;;;2.40;1.10;;;11.60;99.90;;;;;;4950566;28;20435;-85
2022/04/29 12:17:48;;;;;;;2.95;0.80;;;11.60;99.90;;;;;;4957471;29;20122;-85
2022/04/29 12:20:19;;;;;;;1.73;0.80;;;11.80;99.90;;;;;;4976992;28;20400;-85
2022/04/29 12:22:48;;;;;;;2.05;0.65;;;11.80;99.90;;;;;;4979074;28;20554;-84
2022/04/29 12:25:29;;;;;;;1.10;0.93;;;11.70;99.90;;;;;;4978900;28;20567;-85
2022/04/29 12:28:13;;;;;;;1.30;0.90;;;11.60;99.90;;;;;;4996346;28;20053;-85
2022/04/29 12:36:50;;;;;;;3.92;0.77;;;11.70;99.90;;;;;;4965735;28;20122;-84
2022/04/29 12:39:27;;;;;;;1.77;0.82;;;11.50;99.90;;;;;;4976784;28;20424;-85
2022/04/29 12:42:06;;;;;;;1.60;0.82;;;11.40;99.90;;;;;;4996141;28;20092;-85
2022/04/29 12:47:43;;;;;;;3.50;1.02;;;11.50;99.90;;;;;;4979412;28;20101;-85
2022/04/29 12:50:21;;;;;;;2.38;0.90;;;11.70;99.90;;;;;;4988972;28;20043;-85
2022/04/29 12:52:54;;;;;;;1.42;0.90;;;11.50;99.90;;;;;;4974118;28;20042;-85
2022/04/29 12:55:21;;;;;;;3.33;1.95;;;11.60;99.90;;;;;;4963883;28;20395;-85
2022/04/29 12:57:49;;;;;;;2.95;0.90;;;11.50;99.90;;;;;;4943667;28;20055;-86
2022/04/29 13:00:25;;;;;;;2.38;1.00;;;11.30;99.90;;;;;;4935770;29;20504;-86
2022/04/29 13:03:01;;;;;;;1.58;0.90;;;11.50;99.90;;;;;;4972000;28;20043;-86
2022/04/29 13:05:28;;;;;;;1.58;0.85;;;11.50;99.90;;;;;;4955645;29;20078;-85
2022/04/29 13:07:54;;;;;;;2.33;0.70;;;11.50;99.90;;;;;;4939800;29;20057;-85
2022/04/29 13:10:20;;;;;;;4.53;2.35;;;11.50;99.90;;;;;;4956665;29;20404;-85
2022/04/29 13:12:46;;;;;;;1.58;0.95;;;11.70;99.90;;;;;;4939395;29;20043;-86
2022/04/29 13:15:11;;;;;;;2.90;1.10;;;11.60;99.90;;;;;;4956707;29;20070;-85
2022/04/29 13:17:37;;;;;;;2.28;0.90;;;11.70;99.90;;;;;;4971388;28;20054;-85
2022/04/29 13:20:05;;;;;;;4.00;1.27;;;11.80;99.90;;;;;;4956589;29;20051;-86
2022/04/29 13:22:31;;;;;;;1.77;1.00;;;11.60;99.90;;;;;;4939459;29;20097;-85
2022/04/29 13:24:59;;;;;;;2.80;0.90;;;11.60;99.90;;;;;;4956606;29;20125;-85
2022/04/29 13:27:25;;;;;;;2.33;1.05;;;11.60;99.90;;;;;;4939155;29;20512;-85
2022/04/29 13:29:51;;;;;;;2.67;1.08;;;11.60;99.90;;;;;;4939319;29;20047;-84
2022/04/29 13:32:16;;;;;;;1.73;1.10;;;11.50;99.90;;;;;;4956294;29;20050;-85
2022/04/29 13:34:42;;;;;;;1.80;1.00;;;11.40;99.90;;;;;;4939241;29;20051;-86
2022/04/29 13:37:08;;;;;;;2.13;0.98;;;11.30;99.90;;;;;;4938756;29;20051;-87
2022/04/29 13:39:34;;;;;;;2.28;0.98;;;11.20;99.90;;;;;;4956639;29;20141;-86
2022/04/29 13:44:29;;;;;;;1.38;1.05;;;11.10;99.90;;;;;;4996407;23;20050;-89
2022/04/29 13:46:59;;;;;;;3.08;1.17;;;11.10;99.90;;;;;;4993964;28;20046;-88
2022/04/29 13:49:24;;;;;;;3.15;1.10;;;11.20;99.90;;;;;;4973282;28;20130;-85
2022/04/29 13:51:50;;;;;;;5.32;1.33;;;11.40;99.90;;;;;;4971106;28;20129;-86
2022/04/29 13:54:19;;;;;;;6.40;1.65;;;11.20;99.90;;;;;;4985580;28;20068;-90
2022/04/29 13:56:56;;;;;;;5.60;1.58;;;11.60;99.90;;;;;;4985036;28;20505;-88
2022/04/29 13:59:24;;;;;;;2.70;1.30;;;11.30;99.90;;;;;;4977534;28;20050;-86
2022/04/29 14:01:51;;;;;;;2.63;1.60;;;11.30;99.90;;;;;;4981856;23;20145;-91
2022/04/29 14:04:19;;;;;;;3.88;1.85;;;11.30;99.90;;;;;;4986729;28;20095;-87